sensor_id;sensor_type;location;lat;lon;timestamp;P1;durP1;ratioP1;P2;durP2;ratioP2
15968;SDS011;8085;53.472;9.794;2022-07-05T00:00:16;3.27;;;1.37;;
15968;SDS011;8085;53.472;9.794;2022-07-05T00:02:43;5.60;;;1.37;;
15968;SDS011;8085;53.472;9.794;2022-07-05T00:05:10;3.60;;;1.43;;
15968;SDS011;8085;53.472;9.794;2022-07-05T00:07:38;2.73;;;1.07;;
15968;SDS011;8085;53.472;9.794;2022-07-05T00:10:05;3.93;;;1.40;;
15968;SDS011;8085;53.472;9.794;2022-07-05T00:12:32;2.87;;;1.40;;
15968;SDS011;8085;53.472;9.794;2022-07-05T00:15:00;5.47;;;1.33;;
15968;SDS011;8085;53.472;9.794;2022-07-05T00:17:27;4.37;;;1.50;;
15968;SDS011;8085;53.472;9.794;2022-07-05T00:19:54;2.77;;;1.20;;
15968;SDS011;8085;53.472;9.794;2022-07-05T00:22:21;3.17;;;1.30;;
15968;SDS011;8085;53.472;9.794;2022-07-05T00:24:49;2.23;;;1.20;;
15968;SDS011;8085;53.472;9.794;2022-07-05T00:27:16;4.17;;;1.53;;
15968;SDS011;8085;53.472;9.794;2022-07-05T00:29:44;3.60;;;1.40;;
15968;SDS011;8085;53.472;9.794;2022-07-05T00:32:11;2.53;;;1.33;;
15968;SDS011;8085;53.472;9.794;2022-07-05T00:34:38;5.23;;;1.23;;
15968;SDS011;8085;53.472;9.794;2022-07-05T00:37:05;7.40;;;1.50;;
15968;SDS011;8085;53.472;9.794;2022-07-05T00:39:32;4.13;;;1.43;;
15968;SDS011;8085;53.472;9.794;2022-07-05T00:42:01;6.07;;;1.90;;
15968;SDS011;8085;53.472;9.794;2022-07-05T00:44:29;3.27;;;1.10;;
15968;SDS011;8085;53.472;9.794;2022-07-05T00:46:57;2.33;;;1.30;;
15968;SDS011;8085;53.472;9.794;2022-07-05T00:49:24;2.63;;;1.53;;
15968;SDS011;8085;53.472;9.794;2022-07-05T00:51:51;4.83;;;1.70;;
15968;SDS011;8085;53.472;9.794;2022-07-05T00:54:19;4.90;;;1.60;;
15968;SDS011;8085;53.472;9.794;2022-07-05T00:56:46;4.17;;;1.37;;
15968;SDS011;8085;53.472;9.794;2022-07-05T00:59:15;2.90;;;1.50;;
15968;SDS011;8085;53.472;9.794;2022-07-05T01:01:42;2.77;;;1.60;;
15968;SDS011;8085;53.472;9.794;2022-07-05T01:04:08;4.10;;;1.40;;
15968;SDS011;8085;53.472;9.794;2022-07-05T01:06:36;4.87;;;1.80;;
15968;SDS011;8085;53.472;9.794;2022-07-05T01:09:04;5.37;;;1.40;;
15968;SDS011;8085;53.472;9.794;2022-07-05T01:11:31;3.77;;;1.70;;
15968;SDS011;8085;53.472;9.794;2022-07-05T01:13:58;3.90;;;1.53;;
15968;SDS011;8085;53.472;9.794;2022-07-05T01:16:27;3.97;;;1.87;;
15968;SDS011;8085;53.472;9.794;2022-07-05T01:18:54;2.87;;;1.67;;
15968;SDS011;8085;53.472;9.794;2022-07-05T01:21:21;4.93;;;1.60;;
15968;SDS011;8085;53.472;9.794;2022-07-05T01:23:53;4.93;;;1.97;;
15968;SDS011;8085;53.472;9.794;2022-07-05T01:26:20;2.80;;;1.50;;
15968;SDS011;8085;53.472;9.794;2022-07-05T01:28:47;4.63;;;1.70;;
15968;SDS011;8085;53.472;9.794;2022-07-05T01:31:14;5.23;;;1.60;;
15968;SDS011;8085;53.472;9.794;2022-07-05T01:33:41;4.53;;;1.60;;
15968;SDS011;8085;53.472;9.794;2022-07-05T01:36:08;2.93;;;1.47;;
15968;SDS011;8085;53.472;9.794;2022-07-05T01:38:38;5.83;;;2.00;;
15968;SDS011;8085;53.472;9.794;2022-07-05T01:41:06;4.67;;;2.07;;
15968;SDS011;8085;53.472;9.794;2022-07-05T01:43:34;3.57;;;1.53;;
15968;SDS011;8085;53.472;9.794;2022-07-05T01:46:02;6.33;;;1.73;;
15968;SDS011;8085;53.472;9.794;2022-07-05T01:48:32;4.47;;;1.60;;
15968;SDS011;8085;53.472;9.794;2022-07-05T01:51:00;3.67;;;1.53;;
15968;SDS011;8085;53.472;9.794;2022-07-05T01:53:32;7.33;;;1.80;;
15968;SDS011;8085;53.472;9.794;2022-07-05T01:55:59;5.10;;;2.03;;
15968;SDS011;8085;53.472;9.794;2022-07-05T01:58:30;5.23;;;2.17;;
15968;SDS011;8085;53.472;9.794;2022-07-05T02:00:57;4.70;;;2.10;;
15968;SDS011;8085;53.472;9.794;2022-07-05T02:03:26;2.60;;;2.00;;
15968;SDS011;8085;53.472;9.794;2022-07-05T02:05:53;4.80;;;1.93;;
15968;SDS011;8085;53.472;9.794;2022-07-05T02:08:20;4.27;;;1.83;;
15968;SDS011;8085;53.472;9.794;2022-07-05T02:10:47;3.30;;;1.90;;
15968;SDS011;8085;53.472;9.794;2022-07-05T02:13:14;3.20;;;1.77;;
15968;SDS011;8085;53.472;9.794;2022-07-05T02:15:42;4.00;;;1.80;;
15968;SDS011;8085;53.472;9.794;2022-07-05T02:18:09;5.23;;;1.90;;
15968;SDS011;8085;53.472;9.794;2022-07-05T02:20:37;5.03;;;1.87;;
15968;SDS011;8085;53.472;9.794;2022-07-05T02:23:05;3.87;;;1.70;;
15968;SDS011;8085;53.472;9.794;2022-07-05T02:25:33;2.70;;;1.80;;
15968;SDS011;8085;53.472;9.794;2022-07-05T02:28:00;3.43;;;1.90;;
15968;SDS011;8085;53.472;9.794;2022-07-05T02:30:28;4.73;;;1.70;;
15968;SDS011;8085;53.472;9.794;2022-07-05T02:32:56;3.73;;;2.00;;
15968;SDS011;8085;53.472;9.794;2022-07-05T02:35:23;2.50;;;1.80;;
15968;SDS011;8085;53.472;9.794;2022-07-05T02:37:50;10.00;;;2.43;;
15968;SDS011;8085;53.472;9.794;2022-07-05T02:40:17;3.47;;;1.80;;
15968;SDS011;8085;53.472;9.794;2022-07-05T02:42:44;3.10;;;1.97;;
15968;SDS011;8085;53.472;9.794;2022-07-05T02:45:11;3.83;;;1.77;;
15968;SDS011;8085;53.472;9.794;2022-07-05T02:47:38;3.47;;;1.87;;
15968;SDS011;8085;53.472;9.794;2022-07-05T02:50:07;4.40;;;1.77;;
15968;SDS011;8085;53.472;9.794;2022-07-05T02:52:35;3.13;;;2.10;;
15968;SDS011;8085;53.472;9.794;2022-07-05T02:55:03;5.37;;;2.13;;
15968;SDS011;8085;53.472;9.794;2022-07-05T02:57:30;3.67;;;2.00;;
15968;SDS011;8085;53.472;9.794;2022-07-05T02:59:57;2.67;;;1.93;;
15968;SDS011;8085;53.472;9.794;2022-07-05T03:02:24;6.10;;;2.30;;
15968;SDS011;8085;53.472;9.794;2022-07-05T03:04:51;3.13;;;1.73;;
15968;SDS011;8085;53.472;9.794;2022-07-05T03:07:20;3.83;;;1.83;;
15968;SDS011;8085;53.472;9.794;2022-07-05T03:09:46;2.77;;;1.80;;
15968;SDS011;8085;53.472;9.794;2022-07-05T03:12:13;7.30;;;2.10;;
15968;SDS011;8085;53.472;9.794;2022-07-05T03:14:40;4.20;;;2.10;;
15968;SDS011;8085;53.472;9.794;2022-07-05T03:17:07;4.63;;;2.27;;
15968;SDS011;8085;53.472;9.794;2022-07-05T03:19:34;3.90;;;2.10;;
15968;SDS011;8085;53.472;9.794;2022-07-05T03:22:02;5.37;;;2.23;;
15968;SDS011;8085;53.472;9.794;2022-07-05T03:24:31;4.40;;;2.30;;
15968;SDS011;8085;53.472;9.794;2022-07-05T03:26:58;4.20;;;2.47;;
15968;SDS011;8085;53.472;9.794;2022-07-05T03:29:24;3.67;;;2.10;;
15968;SDS011;8085;53.472;9.794;2022-07-05T03:31:51;3.87;;;2.30;;
15968;SDS011;8085;53.472;9.794;2022-07-05T03:34:18;4.77;;;2.57;;
15968;SDS011;8085;53.472;9.794;2022-07-05T03:36:45;3.27;;;2.27;;
15968;SDS011;8085;53.472;9.794;2022-07-05T03:39:12;3.20;;;2.60;;
15968;SDS011;8085;53.472;9.794;2022-07-05T03:41:41;6.67;;;2.50;;
15968;SDS011;8085;53.472;9.794;2022-07-05T03:44:07;5.57;;;2.30;;
15968;SDS011;8085;53.472;9.794;2022-07-05T03:46:34;4.10;;;2.40;;
15968;SDS011;8085;53.472;9.794;2022-07-05T03:49:01;4.67;;;2.80;;
15968;SDS011;8085;53.472;9.794;2022-07-05T03:51:28;3.70;;;2.60;;
15968;SDS011;8085;53.472;9.794;2022-07-05T03:53:55;2.67;;;2.20;;
15968;SDS011;8085;53.472;9.794;2022-07-05T03:56:22;4.80;;;2.57;;
15968;SDS011;8085;53.472;9.794;2022-07-05T03:58:51;6.23;;;2.70;;
15968;SDS011;8085;53.472;9.794;2022-07-05T04:01:18;5.73;;;2.67;;
15968;SDS011;8085;53.472;9.794;2022-07-05T04:03:45;4.50;;;2.70;;
15968;SDS011;8085;53.472;9.794;2022-07-05T04:06:12;6.73;;;2.70;;
15968;SDS011;8085;53.472;9.794;2022-07-05T04:08:39;5.67;;;2.33;;
15968;SDS011;8085;53.472;9.794;2022-07-05T04:11:06;4.57;;;2.40;;
15968;SDS011;8085;53.472;9.794;2022-07-05T04:13:34;2.40;;;2.20;;
15968;SDS011;8085;53.472;9.794;2022-07-05T04:16:02;4.97;;;2.70;;
15968;SDS011;8085;53.472;9.794;2022-07-05T04:18:30;4.43;;;2.43;;
15968;SDS011;8085;53.472;9.794;2022-07-05T04:20:57;3.80;;;2.60;;
15968;SDS011;8085;53.472;9.794;2022-07-05T04:23:23;4.67;;;2.60;;
15968;SDS011;8085;53.472;9.794;2022-07-05T04:25:50;4.37;;;2.07;;
15968;SDS011;8085;53.472;9.794;2022-07-05T04:28:17;4.10;;;2.30;;
15968;SDS011;8085;53.472;9.794;2022-07-05T04:30:44;4.27;;;2.40;;
15968;SDS011;8085;53.472;9.794;2022-07-05T04:33:12;5.10;;;2.33;;
15968;SDS011;8085;53.472;9.794;2022-07-05T04:35:39;4.67;;;2.03;;
15968;SDS011;8085;53.472;9.794;2022-07-05T04:38:06;5.47;;;2.67;;
15968;SDS011;8085;53.472;9.794;2022-07-05T04:40:33;3.67;;;2.37;;
15968;SDS011;8085;53.472;9.794;2022-07-05T04:43:00;7.33;;;2.53;;
15968;SDS011;8085;53.472;9.794;2022-07-05T04:45:27;4.30;;;2.70;;
15968;SDS011;8085;53.472;9.794;2022-07-05T04:47:54;5.50;;;2.80;;
15968;SDS011;8085;53.472;9.794;2022-07-05T04:50:22;3.47;;;2.50;;
15968;SDS011;8085;53.472;9.794;2022-07-05T04:52:49;5.50;;;2.40;;
15968;SDS011;8085;53.472;9.794;2022-07-05T04:55:16;3.07;;;2.27;;
15968;SDS011;8085;53.472;9.794;2022-07-05T04:57:43;4.73;;;2.60;;
15968;SDS011;8085;53.472;9.794;2022-07-05T05:00:11;3.33;;;2.43;;
15968;SDS011;8085;53.472;9.794;2022-07-05T05:02:41;4.60;;;2.50;;
15968;SDS011;8085;53.472;9.794;2022-07-05T05:05:08;2.80;;;2.30;;
15968;SDS011;8085;53.472;9.794;2022-07-05T05:07:36;3.33;;;2.23;;
15968;SDS011;8085;53.472;9.794;2022-07-05T05:10:07;3.67;;;2.67;;
15968;SDS011;8085;53.472;9.794;2022-07-05T05:12:34;8.07;;;2.60;;
15968;SDS011;8085;53.472;9.794;2022-07-05T05:15:01;5.10;;;2.33;;
15968;SDS011;8085;53.472;9.794;2022-07-05T05:17:33;5.90;;;3.00;;
15968;SDS011;8085;53.472;9.794;2022-07-05T05:20:03;3.53;;;2.40;;
15968;SDS011;8085;53.472;9.794;2022-07-05T05:22:31;3.70;;;2.40;;
15968;SDS011;8085;53.472;9.794;2022-07-05T05:24:59;3.77;;;2.30;;
15968;SDS011;8085;53.472;9.794;2022-07-05T05:27:26;4.47;;;2.27;;
15968;SDS011;8085;53.472;9.794;2022-07-05T05:29:53;3.63;;;2.17;;
15968;SDS011;8085;53.472;9.794;2022-07-05T05:32:20;5.77;;;2.67;;
15968;SDS011;8085;53.472;9.794;2022-07-05T05:34:48;4.23;;;2.40;;
15968;SDS011;8085;53.472;9.794;2022-07-05T05:37:19;5.10;;;2.37;;
15968;SDS011;8085;53.472;9.794;2022-07-05T05:39:46;3.67;;;2.30;;
15968;SDS011;8085;53.472;9.794;2022-07-05T05:42:16;4.03;;;2.10;;
15968;SDS011;8085;53.472;9.794;2022-07-05T05:44:43;3.30;;;2.10;;
15968;SDS011;8085;53.472;9.794;2022-07-05T05:47:10;5.37;;;2.37;;
15968;SDS011;8085;53.472;9.794;2022-07-05T05:49:36;4.53;;;2.13;;
15968;SDS011;8085;53.472;9.794;2022-07-05T05:52:04;5.70;;;1.90;;
15968;SDS011;8085;53.472;9.794;2022-07-05T05:54:31;4.97;;;1.90;;
15968;SDS011;8085;53.472;9.794;2022-07-05T05:56:57;4.90;;;1.67;;
15968;SDS011;8085;53.472;9.794;2022-07-05T05:59:26;4.43;;;2.03;;
15968;SDS011;8085;53.472;9.794;2022-07-05T06:01:52;3.00;;;1.80;;
15968;SDS011;8085;53.472;9.794;2022-07-05T06:04:19;3.03;;;1.87;;
15968;SDS011;8085;53.472;9.794;2022-07-05T06:06:46;1.77;;;1.60;;
15968;SDS011;8085;53.472;9.794;2022-07-05T06:09:13;4.07;;;1.63;;
15968;SDS011;8085;53.472;9.794;2022-07-05T06:11:40;4.97;;;2.00;;
15968;SDS011;8085;53.472;9.794;2022-07-05T06:14:07;3.73;;;1.57;;
15968;SDS011;8085;53.472;9.794;2022-07-05T06:16:35;2.60;;;1.40;;
15968;SDS011;8085;53.472;9.794;2022-07-05T06:19:02;4.57;;;1.90;;
15968;SDS011;8085;53.472;9.794;2022-07-05T06:21:29;3.07;;;1.43;;
15968;SDS011;8085;53.472;9.794;2022-07-05T06:23:56;2.73;;;1.63;;
15968;SDS011;8085;53.472;9.794;2022-07-05T06:26:22;2.80;;;1.20;;
15968;SDS011;8085;53.472;9.794;2022-07-05T06:28:49;3.43;;;1.20;;
15968;SDS011;8085;53.472;9.794;2022-07-05T06:31:16;6.10;;;1.37;;
15968;SDS011;8085;53.472;9.794;2022-07-05T06:33:44;3.23;;;1.30;;
15968;SDS011;8085;53.472;9.794;2022-07-05T06:36:14;6.60;;;1.40;;
15968;SDS011;8085;53.472;9.794;2022-07-05T06:38:41;5.73;;;1.60;;
15968;SDS011;8085;53.472;9.794;2022-07-05T06:41:08;4.03;;;1.50;;
15968;SDS011;8085;53.472;9.794;2022-07-05T06:43:35;4.27;;;1.27;;
15968;SDS011;8085;53.472;9.794;2022-07-05T06:46:02;2.33;;;1.17;;
15968;SDS011;8085;53.472;9.794;2022-07-05T06:48:29;2.77;;;1.30;;
15968;SDS011;8085;53.472;9.794;2022-07-05T06:50:57;2.47;;;1.30;;
15968;SDS011;8085;53.472;9.794;2022-07-05T06:53:24;2.40;;;1.13;;
15968;SDS011;8085;53.472;9.794;2022-07-05T06:55:55;2.83;;;1.30;;
15968;SDS011;8085;53.472;9.794;2022-07-05T06:58:22;2.13;;;1.17;;
15968;SDS011;8085;53.472;9.794;2022-07-05T07:00:49;1.80;;;1.10;;
15968;SDS011;8085;53.472;9.794;2022-07-05T07:03:18;4.17;;;1.10;;
15968;SDS011;8085;53.472;9.794;2022-07-05T07:05:45;1.93;;;1.00;;
15968;SDS011;8085;53.472;9.794;2022-07-05T07:08:16;3.20;;;1.30;;
15968;SDS011;8085;53.472;9.794;2022-07-05T07:11:00;2.83;;;0.97;;
15968;SDS011;8085;53.472;9.794;2022-07-05T07:13:28;2.33;;;1.27;;
15968;SDS011;8085;53.472;9.794;2022-07-05T07:15:55;2.63;;;0.87;;
15968;SDS011;8085;53.472;9.794;2022-07-05T07:18:23;2.73;;;1.03;;
15968;SDS011;8085;53.472;9.794;2022-07-05T07:20:50;2.40;;;0.70;;
15968;SDS011;8085;53.472;9.794;2022-07-05T07:23:21;2.67;;;1.00;;
15968;SDS011;8085;53.472;9.794;2022-07-05T07:25:56;8.53;;;0.97;;
15968;SDS011;8085;53.472;9.794;2022-07-05T07:28:23;4.50;;;0.80;;
15968;SDS011;8085;53.472;9.794;2022-07-05T07:30:50;2.90;;;0.80;;
15968;SDS011;8085;53.472;9.794;2022-07-05T07:33:17;3.50;;;0.80;;
15968;SDS011;8085;53.472;9.794;2022-07-05T07:35:44;2.57;;;0.77;;
15968;SDS011;8085;53.472;9.794;2022-07-05T07:38:19;1.70;;;0.70;;
15968;SDS011;8085;53.472;9.794;2022-07-05T07:40:47;2.73;;;0.80;;
15968;SDS011;8085;53.472;9.794;2022-07-05T07:43:14;4.40;;;0.80;;
15968;SDS011;8085;53.472;9.794;2022-07-05T07:45:41;2.83;;;0.90;;
15968;SDS011;8085;53.472;9.794;2022-07-05T07:48:09;2.57;;;0.90;;
15968;SDS011;8085;53.472;9.794;2022-07-05T07:50:36;2.57;;;0.87;;
15968;SDS011;8085;53.472;9.794;2022-07-05T07:53:03;0.90;;;0.50;;
15968;SDS011;8085;53.472;9.794;2022-07-05T07:55:32;2.47;;;0.40;;
15968;SDS011;8085;53.472;9.794;2022-07-05T07:57:59;2.50;;;0.50;;
15968;SDS011;8085;53.472;9.794;2022-07-05T08:00:27;0.50;;;0.40;;
15968;SDS011;8085;53.472;9.794;2022-07-05T08:02:54;1.23;;;0.60;;
15968;SDS011;8085;53.472;9.794;2022-07-05T08:05:28;2.47;;;0.53;;
15968;SDS011;8085;53.472;9.794;2022-07-05T08:07:58;1.20;;;0.60;;
15968;SDS011;8085;53.472;9.794;2022-07-05T08:10:26;1.47;;;0.60;;
15968;SDS011;8085;53.472;9.794;2022-07-05T08:12:55;0.97;;;0.50;;
15968;SDS011;8085;53.472;9.794;2022-07-05T08:15:22;1.53;;;0.60;;
15968;SDS011;8085;53.472;9.794;2022-07-05T08:17:49;0.33;;;0.33;;
15968;SDS011;8085;53.472;9.794;2022-07-05T08:20:33;1.77;;;0.53;;
15968;SDS011;8085;53.472;9.794;2022-07-05T08:23:24;1.43;;;0.77;;
15968;SDS011;8085;53.472;9.794;2022-07-05T08:25:54;3.03;;;0.70;;
15968;SDS011;8085;53.472;9.794;2022-07-05T08:28:22;1.23;;;0.50;;
15968;SDS011;8085;53.472;9.794;2022-07-05T08:30:51;0.93;;;0.43;;
15968;SDS011;8085;53.472;9.794;2022-07-05T08:33:21;1.07;;;0.40;;
15968;SDS011;8085;53.472;9.794;2022-07-05T08:35:51;1.20;;;0.60;;
15968;SDS011;8085;53.472;9.794;2022-07-05T08:41:07;0.93;;;0.40;;
15968;SDS011;8085;53.472;9.794;2022-07-05T08:43:39;0.67;;;0.40;;
15968;SDS011;8085;53.472;9.794;2022-07-05T08:46:31;2.97;;;0.40;;
15968;SDS011;8085;53.472;9.794;2022-07-05T08:49:03;1.70;;;0.50;;
15968;SDS011;8085;53.472;9.794;2022-07-05T08:51:32;1.00;;;0.50;;
15968;SDS011;8085;53.472;9.794;2022-07-05T08:54:00;1.53;;;0.57;;
15968;SDS011;8085;53.472;9.794;2022-07-05T08:56:30;0.73;;;0.30;;
15968;SDS011;8085;53.472;9.794;2022-07-05T08:59:05;1.27;;;0.40;;
15968;SDS011;8085;53.472;9.794;2022-07-05T09:01:32;1.47;;;0.53;;
15968;SDS011;8085;53.472;9.794;2022-07-05T09:04:01;2.27;;;0.73;;
15968;SDS011;8085;53.472;9.794;2022-07-05T09:06:31;4.67;;;0.60;;
15968;SDS011;8085;53.472;9.794;2022-07-05T09:09:02;1.33;;;0.40;;
15968;SDS011;8085;53.472;9.794;2022-07-05T09:11:35;0.33;;;0.30;;
15968;SDS011;8085;53.472;9.794;2022-07-05T09:14:05;1.07;;;0.50;;
15968;SDS011;8085;53.472;9.794;2022-07-05T09:16:35;1.33;;;0.50;;
15968;SDS011;8085;53.472;9.794;2022-07-05T09:19:06;0.60;;;0.40;;
15968;SDS011;8085;53.472;9.794;2022-07-05T09:21:33;1.97;;;0.47;;
15968;SDS011;8085;53.472;9.794;2022-07-05T09:24:02;0.60;;;0.43;;
15968;SDS011;8085;53.472;9.794;2022-07-05T09:26:34;1.10;;;0.50;;
15968;SDS011;8085;53.472;9.794;2022-07-05T09:29:02;0.70;;;0.50;;
15968;SDS011;8085;53.472;9.794;2022-07-05T09:34:37;0.63;;;0.40;;
15968;SDS011;8085;53.472;9.794;2022-07-05T09:37:05;2.43;;;0.50;;
15968;SDS011;8085;53.472;9.794;2022-07-05T09:39:36;0.73;;;0.33;;
15968;SDS011;8085;53.472;9.794;2022-07-05T09:42:11;1.47;;;0.50;;
15968;SDS011;8085;53.472;9.794;2022-07-05T09:44:45;0.87;;;0.43;;
15968;SDS011;8085;53.472;9.794;2022-07-05T09:47:18;0.83;;;0.40;;
15968;SDS011;8085;53.472;9.794;2022-07-05T09:49:46;1.23;;;0.40;;
15968;SDS011;8085;53.472;9.794;2022-07-05T09:52:27;1.47;;;0.63;;
15968;SDS011;8085;53.472;9.794;2022-07-05T09:55:05;5.77;;;0.43;;
15968;SDS011;8085;53.472;9.794;2022-07-05T09:57:47;1.37;;;0.50;;
15968;SDS011;8085;53.472;9.794;2022-07-05T10:00:16;0.93;;;0.50;;
15968;SDS011;8085;53.472;9.794;2022-07-05T10:02:50;1.00;;;0.43;;
15968;SDS011;8085;53.472;9.794;2022-07-05T10:05:32;1.83;;;0.50;;
15968;SDS011;8085;53.472;9.794;2022-07-05T10:08:13;2.38;;;0.50;;
15968;SDS011;8085;53.472;9.794;2022-07-05T10:10:58;1.00;;;0.63;;
15968;SDS011;8085;53.472;9.794;2022-07-05T10:13:48;1.52;;;0.43;;
15968;SDS011;8085;53.472;9.794;2022-07-05T10:16:17;3.25;;;0.47;;
15968;SDS011;8085;53.472;9.794;2022-07-05T10:18:46;1.05;;;0.50;;
15968;SDS011;8085;53.472;9.794;2022-07-05T10:21:17;1.45;;;0.68;;
15968;SDS011;8085;53.472;9.794;2022-07-05T10:23:45;1.80;;;0.40;;
15968;SDS011;8085;53.472;9.794;2022-07-05T10:26:13;1.50;;;0.47;;
15968;SDS011;8085;53.472;9.794;2022-07-05T10:28:44;0.98;;;0.40;;
15968;SDS011;8085;53.472;9.794;2022-07-05T10:31:14;1.30;;;0.40;;
15968;SDS011;8085;53.472;9.794;2022-07-05T10:33:41;1.77;;;0.43;;
15968;SDS011;8085;53.472;9.794;2022-07-05T10:36:11;1.67;;;0.45;;
15968;SDS011;8085;53.472;9.794;2022-07-05T10:38:40;1.17;;;0.50;;
15968;SDS011;8085;53.472;9.794;2022-07-05T10:41:09;1.40;;;0.50;;
15968;SDS011;8085;53.472;9.794;2022-07-05T10:43:38;1.13;;;0.40;;
15968;SDS011;8085;53.472;9.794;2022-07-05T10:46:05;0.88;;;0.38;;
15968;SDS011;8085;53.472;9.794;2022-07-05T10:48:33;0.52;;;0.40;;
15968;SDS011;8085;53.472;9.794;2022-07-05T10:51:01;1.20;;;0.50;;
15968;SDS011;8085;53.472;9.794;2022-07-05T10:54:00;0.60;;;0.40;;
15968;SDS011;8085;53.472;9.794;2022-07-05T10:56:29;2.63;;;0.43;;
15968;SDS011;8085;53.472;9.794;2022-07-05T10:59:03;1.00;;;0.40;;
15968;SDS011;8085;53.472;9.794;2022-07-05T11:01:36;1.30;;;0.30;;
15968;SDS011;8085;53.472;9.794;2022-07-05T11:07:02;1.17;;;0.65;;
15968;SDS011;8085;53.472;9.794;2022-07-05T11:09:30;0.77;;;0.40;;
15968;SDS011;8085;53.472;9.794;2022-07-05T11:12:04;0.57;;;0.50;;
15968;SDS011;8085;53.472;9.794;2022-07-05T11:14:34;0.57;;;0.40;;
15968;SDS011;8085;53.472;9.794;2022-07-05T11:17:13;3.40;;;0.70;;
15968;SDS011;8085;53.472;9.794;2022-07-05T11:22:39;1.83;;;0.47;;
15968;SDS011;8085;53.472;9.794;2022-07-05T11:25:08;1.27;;;0.47;;
15968;SDS011;8085;53.472;9.794;2022-07-05T11:27:37;0.95;;;0.50;;
15968;SDS011;8085;53.472;9.794;2022-07-05T11:33:31;0.55;;;0.40;;
15968;SDS011;8085;53.472;9.794;2022-07-05T11:36:00;1.50;;;0.50;;
15968;SDS011;8085;53.472;9.794;2022-07-05T11:38:29;2.97;;;0.63;;
15968;SDS011;8085;53.472;9.794;2022-07-05T11:41:09;1.98;;;0.45;;
15968;SDS011;8085;53.472;9.794;2022-07-05T11:43:37;1.08;;;0.50;;
15968;SDS011;8085;53.472;9.794;2022-07-05T11:46:07;1.23;;;0.52;;
15968;SDS011;8085;53.472;9.794;2022-07-05T11:48:35;0.40;;;0.40;;
15968;SDS011;8085;53.472;9.794;2022-07-05T11:51:12;2.65;;;0.68;;
15968;SDS011;8085;53.472;9.794;2022-07-05T11:53:39;0.93;;;0.50;;
15968;SDS011;8085;53.472;9.794;2022-07-05T11:56:07;1.35;;;0.47;;
15968;SDS011;8085;53.472;9.794;2022-07-05T11:58:35;1.42;;;0.60;;
15968;SDS011;8085;53.472;9.794;2022-07-05T12:01:02;2.10;;;0.57;;
15968;SDS011;8085;53.472;9.794;2022-07-05T12:03:32;0.95;;;0.50;;
15968;SDS011;8085;53.472;9.794;2022-07-05T12:05:59;1.63;;;0.52;;
15968;SDS011;8085;53.472;9.794;2022-07-05T12:08:37;0.50;;;0.50;;
15968;SDS011;8085;53.472;9.794;2022-07-05T12:11:04;3.47;;;0.60;;
15968;SDS011;8085;53.472;9.794;2022-07-05T12:13:49;1.98;;;0.50;;
15968;SDS011;8085;53.472;9.794;2022-07-05T12:16:17;1.20;;;0.50;;
15968;SDS011;8085;53.472;9.794;2022-07-05T12:18:49;1.80;;;0.40;;
15968;SDS011;8085;53.472;9.794;2022-07-05T12:21:19;1.00;;;0.60;;
15968;SDS011;8085;53.472;9.794;2022-07-05T12:23:47;0.75;;;0.50;;
15968;SDS011;8085;53.472;9.794;2022-07-05T12:26:15;1.80;;;0.60;;
15968;SDS011;8085;53.472;9.794;2022-07-05T12:28:44;1.42;;;0.60;;
15968;SDS011;8085;53.472;9.794;2022-07-05T12:31:18;2.63;;;0.55;;
15968;SDS011;8085;53.472;9.794;2022-07-05T12:33:46;0.75;;;0.50;;
15968;SDS011;8085;53.472;9.794;2022-07-05T12:36:16;1.00;;;0.50;;
15968;SDS011;8085;53.472;9.794;2022-07-05T12:38:44;0.77;;;0.47;;
15968;SDS011;8085;53.472;9.794;2022-07-05T12:41:20;1.33;;;0.80;;
15968;SDS011;8085;53.472;9.794;2022-07-05T12:43:48;1.13;;;0.50;;
15968;SDS011;8085;53.472;9.794;2022-07-05T12:46:16;2.60;;;0.52;;
15968;SDS011;8085;53.472;9.794;2022-07-05T12:48:43;0.52;;;0.30;;
15968;SDS011;8085;53.472;9.794;2022-07-05T12:51:11;1.80;;;0.68;;
15968;SDS011;8085;53.472;9.794;2022-07-05T12:53:46;1.92;;;0.50;;
15968;SDS011;8085;53.472;9.794;2022-07-05T12:56:31;0.77;;;0.68;;
15968;SDS011;8085;53.472;9.794;2022-07-05T12:59:16;2.60;;;0.60;;
15968;SDS011;8085;53.472;9.794;2022-07-05T13:01:43;0.43;;;0.40;;
15968;SDS011;8085;53.472;9.794;2022-07-05T13:04:11;1.15;;;0.50;;
15968;SDS011;8085;53.472;9.794;2022-07-05T13:06:40;0.70;;;0.30;;
15968;SDS011;8085;53.472;9.794;2022-07-05T13:09:09;3.13;;;0.40;;
15968;SDS011;8085;53.472;9.794;2022-07-05T13:11:36;2.55;;;0.60;;
15968;SDS011;8085;53.472;9.794;2022-07-05T13:14:02;2.30;;;0.60;;
15968;SDS011;8085;53.472;9.794;2022-07-05T13:16:29;1.13;;;0.60;;
15968;SDS011;8085;53.472;9.794;2022-07-05T13:19:05;1.80;;;0.60;;
15968;SDS011;8085;53.472;9.794;2022-07-05T13:21:33;1.92;;;0.70;;
15968;SDS011;8085;53.472;9.794;2022-07-05T13:24:00;2.58;;;0.60;;
15968;SDS011;8085;53.472;9.794;2022-07-05T13:26:28;1.15;;;0.50;;
15968;SDS011;8085;53.472;9.794;2022-07-05T13:28:55;1.93;;;0.60;;
15968;SDS011;8085;53.472;9.794;2022-07-05T13:31:22;1.03;;;0.57;;
15968;SDS011;8085;53.472;9.794;2022-07-05T13:33:49;2.57;;;0.60;;
15968;SDS011;8085;53.472;9.794;2022-07-05T13:36:16;3.13;;;0.67;;
15968;SDS011;8085;53.472;9.794;2022-07-05T13:38:43;1.10;;;0.60;;
15968;SDS011;8085;53.472;9.794;2022-07-05T13:41:10;1.97;;;0.60;;
15968;SDS011;8085;53.472;9.794;2022-07-05T13:43:38;0.80;;;0.50;;
15968;SDS011;8085;53.472;9.794;2022-07-05T13:46:05;4.37;;;0.50;;
15968;SDS011;8085;53.472;9.794;2022-07-05T13:48:32;1.97;;;0.73;;
15968;SDS011;8085;53.472;9.794;2022-07-05T13:50:59;4.57;;;0.57;;
15968;SDS011;8085;53.472;9.794;2022-07-05T13:53:26;1.00;;;0.43;;
15968;SDS011;8085;53.472;9.794;2022-07-05T13:55:53;2.40;;;0.53;;
15968;SDS011;8085;53.472;9.794;2022-07-05T13:58:20;0.55;;;0.45;;
15968;SDS011;8085;53.472;9.794;2022-07-05T14:00:48;1.27;;;0.53;;
15968;SDS011;8085;53.472;9.794;2022-07-05T14:03:16;2.80;;;0.70;;
15968;SDS011;8085;53.472;9.794;2022-07-05T14:05:43;0.70;;;0.60;;
15968;SDS011;8085;53.472;9.794;2022-07-05T14:08:10;1.13;;;0.60;;
15968;SDS011;8085;53.472;9.794;2022-07-05T14:10:37;4.57;;;0.60;;
15968;SDS011;8085;53.472;9.794;2022-07-05T14:13:04;4.73;;;0.70;;
15968;SDS011;8085;53.472;9.794;2022-07-05T14:15:32;5.23;;;0.87;;
15968;SDS011;8085;53.472;9.794;2022-07-05T14:18:00;2.50;;;0.67;;
15968;SDS011;8085;53.472;9.794;2022-07-05T14:20:27;2.30;;;0.63;;
15968;SDS011;8085;53.472;9.794;2022-07-05T14:22:55;1.27;;;0.50;;
15968;SDS011;8085;53.472;9.794;2022-07-05T14:25:22;2.13;;;0.73;;
15968;SDS011;8085;53.472;9.794;2022-07-05T14:27:50;3.20;;;0.70;;
15968;SDS011;8085;53.472;9.794;2022-07-05T14:30:17;2.47;;;0.70;;
15968;SDS011;8085;53.472;9.794;2022-07-05T14:32:44;3.10;;;0.80;;
15968;SDS011;8085;53.472;9.794;2022-07-05T14:35:13;3.50;;;0.60;;
15968;SDS011;8085;53.472;9.794;2022-07-05T14:37:40;2.40;;;0.60;;
15968;SDS011;8085;53.472;9.794;2022-07-05T14:40:07;1.60;;;0.65;;
15968;SDS011;8085;53.472;9.794;2022-07-05T14:42:35;6.80;;;0.73;;
15968;SDS011;8085;53.472;9.794;2022-07-05T14:45:02;2.70;;;0.80;;
15968;SDS011;8085;53.472;9.794;2022-07-05T14:47:29;1.90;;;0.60;;
15968;SDS011;8085;53.472;9.794;2022-07-05T14:49:56;2.50;;;0.90;;
15968;SDS011;8085;53.472;9.794;2022-07-05T14:52:24;3.47;;;0.83;;
15968;SDS011;8085;53.472;9.794;2022-07-05T14:54:54;1.73;;;0.70;;
15968;SDS011;8085;53.472;9.794;2022-07-05T14:57:21;4.25;;;0.70;;
15968;SDS011;8085;53.472;9.794;2022-07-05T14:59:48;2.58;;;0.93;;
15968;SDS011;8085;53.472;9.794;2022-07-05T15:02:15;2.08;;;0.80;;
15968;SDS011;8085;53.472;9.794;2022-07-05T15:04:42;1.85;;;0.60;;
15968;SDS011;8085;53.472;9.794;2022-07-05T15:07:10;2.05;;;0.60;;
15968;SDS011;8085;53.472;9.794;2022-07-05T15:09:39;1.60;;;0.60;;
15968;SDS011;8085;53.472;9.794;2022-07-05T15:12:06;3.27;;;0.77;;
15968;SDS011;8085;53.472;9.794;2022-07-05T15:14:33;1.33;;;0.50;;
15968;SDS011;8085;53.472;9.794;2022-07-05T15:17:00;2.83;;;0.80;;
15968;SDS011;8085;53.472;9.794;2022-07-05T15:19:27;1.80;;;0.60;;
15968;SDS011;8085;53.472;9.794;2022-07-05T15:21:54;1.90;;;0.57;;
15968;SDS011;8085;53.472;9.794;2022-07-05T15:24:21;0.77;;;0.50;;